sensor_id;sensor_type;location;lat;lon;timestamp;P1;durP1;ratioP1;P2;durP2;ratioP2
40695;SDS011;40425;51.102;17.208;2023-04-24T00:01:30;13.48;;;10.13;;
40695;SDS011;40425;51.102;17.208;2023-04-24T00:06:31;15.75;;;10.13;;
40695;SDS011;40425;51.102;17.208;2023-04-24T00:11:37;15.80;;;9.88;;
40695;SDS011;40425;51.102;17.208;2023-04-24T00:16:37;12.38;;;9.35;;
40695;SDS011;40425;51.102;17.208;2023-04-24T00:21:38;15.13;;;10.77;;
40695;SDS011;40425;51.102;17.208;2023-04-24T00:26:40;15.70;;;11.38;;
40695;SDS011;40425;51.102;17.208;2023-04-24T00:31:41;16.05;;;10.85;;
40695;SDS011;40425;51.102;17.208;2023-04-24T00:36:42;17.40;;;12.20;;
40695;SDS011;40425;51.102;17.208;2023-04-24T00:41:43;15.90;;;9.70;;
40695;SDS011;40425;51.102;17.208;2023-04-24T00:46:45;15.75;;;10.18;;
40695;SDS011;40425;51.102;17.208;2023-04-24T00:51:51;11.63;;;10.13;;
40695;SDS011;40425;51.102;17.208;2023-04-24T00:56:53;14.15;;;11.02;;
40695;SDS011;40425;51.102;17.208;2023-04-24T01:01:55;14.07;;;10.55;;
40695;SDS011;40425;51.102;17.208;2023-04-24T01:06:56;13.88;;;10.60;;
40695;SDS011;40425;51.102;17.208;2023-04-24T01:11:57;14.68;;;12.43;;
40695;SDS011;40425;51.102;17.208;2023-04-24T01:16:58;20.98;;;12.25;;
40695;SDS011;40425;51.102;17.208;2023-04-24T01:22:01;20.92;;;14.27;;
40695;SDS011;40425;51.102;17.208;2023-04-24T01:27:03;24.02;;;15.35;;
40695;SDS011;40425;51.102;17.208;2023-04-24T01:32:04;18.98;;;13.90;;
40695;SDS011;40425;51.102;17.208;2023-04-24T01:37:06;17.27;;;12.25;;
40695;SDS011;40425;51.102;17.208;2023-04-24T01:42:07;15.35;;;11.98;;
40695;SDS011;40425;51.102;17.208;2023-04-24T01:47:08;14.35;;;12.77;;
40695;SDS011;40425;51.102;17.208;2023-04-24T01:52:09;15.65;;;12.63;;
40695;SDS011;40425;51.102;17.208;2023-04-24T01:57:10;15.80;;;11.65;;
40695;SDS011;40425;51.102;17.208;2023-04-24T02:02:11;16.95;;;13.65;;
40695;SDS011;40425;51.102;17.208;2023-04-24T02:07:11;20.10;;;13.25;;
40695;SDS011;40425;51.102;17.208;2023-04-24T02:12:12;16.80;;;12.13;;
40695;SDS011;40425;51.102;17.208;2023-04-24T02:17:13;18.40;;;12.55;;
40695;SDS011;40425;51.102;17.208;2023-04-24T02:22:16;18.15;;;13.55;;
40695;SDS011;40425;51.102;17.208;2023-04-24T02:27:17;16.95;;;12.43;;
40695;SDS011;40425;51.102;17.208;2023-04-24T02:32:17;20.83;;;14.75;;
40695;SDS011;40425;51.102;17.208;2023-04-24T02:37:18;17.15;;;12.82;;
40695;SDS011;40425;51.102;17.208;2023-04-24T02:42:19;14.05;;;12.40;;
40695;SDS011;40425;51.102;17.208;2023-04-24T02:47:20;20.60;;;12.02;;
40695;SDS011;40425;51.102;17.208;2023-04-24T02:52:21;13.80;;;12.20;;
40695;SDS011;40425;51.102;17.208;2023-04-24T02:57:22;20.63;;;12.80;;
40695;SDS011;40425;51.102;17.208;2023-04-24T03:02:23;16.08;;;11.25;;
40695;SDS011;40425;51.102;17.208;2023-04-24T03:07:24;19.83;;;11.35;;
40695;SDS011;40425;51.102;17.208;2023-04-24T03:12:25;18.95;;;12.57;;
40695;SDS011;40425;51.102;17.208;2023-04-24T03:17:26;14.80;;;11.75;;
40695;SDS011;40425;51.102;17.208;2023-04-24T03:22:27;17.50;;;11.13;;
40695;SDS011;40425;51.102;17.208;2023-04-24T03:27:28;17.00;;;12.40;;
40695;SDS011;40425;51.102;17.208;2023-04-24T03:32:29;13.90;;;10.98;;
40695;SDS011;40425;51.102;17.208;2023-04-24T03:37:32;16.55;;;10.82;;
40695;SDS011;40425;51.102;17.208;2023-04-24T03:42:33;14.82;;;11.48;;
40695;SDS011;40425;51.102;17.208;2023-04-24T03:47:33;16.48;;;10.73;;
40695;SDS011;40425;51.102;17.208;2023-04-24T03:52:34;15.18;;;11.23;;
40695;SDS011;40425;51.102;17.208;2023-04-24T03:57:35;16.27;;;11.95;;
40695;SDS011;40425;51.102;17.208;2023-04-24T04:02:36;20.90;;;12.25;;
40695;SDS011;40425;51.102;17.208;2023-04-24T04:07:37;13.68;;;11.77;;
40695;SDS011;40425;51.102;17.208;2023-04-24T04:12:38;16.10;;;11.48;;
40695;SDS011;40425;51.102;17.208;2023-04-24T04:17:39;13.82;;;11.70;;
40695;SDS011;40425;51.102;17.208;2023-04-24T04:22:39;16.17;;;12.02;;
40695;SDS011;40425;51.102;17.208;2023-04-24T04:27:40;15.20;;;12.20;;
40695;SDS011;40425;51.102;17.208;2023-04-24T04:32:42;19.30;;;12.52;;
40695;SDS011;40425;51.102;17.208;2023-04-24T04:37:42;13.60;;;11.48;;
40695;SDS011;40425;51.102;17.208;2023-04-24T04:42:43;17.25;;;11.43;;
40695;SDS011;40425;51.102;17.208;2023-04-24T04:47:46;15.90;;;11.90;;
40695;SDS011;40425;51.102;17.208;2023-04-24T04:52:47;14.65;;;10.80;;
40695;SDS011;40425;51.102;17.208;2023-04-24T04:57:48;14.82;;;10.68;;
40695;SDS011;40425;51.102;17.208;2023-04-24T05:02:49;22.17;;;12.10;;
40695;SDS011;40425;51.102;17.208;2023-04-24T05:07:50;14.98;;;10.48;;
40695;SDS011;40425;51.102;17.208;2023-04-24T05:12:50;15.80;;;11.70;;
40695;SDS011;40425;51.102;17.208;2023-04-24T05:17:51;14.00;;;11.10;;
40695;SDS011;40425;51.102;17.208;2023-04-24T05:22:52;16.20;;;12.07;;
40695;SDS011;40425;51.102;17.208;2023-04-24T05:27:53;12.40;;;10.40;;
40695;SDS011;40425;51.102;17.208;2023-04-24T05:32:54;19.30;;;10.77;;
40695;SDS011;40425;51.102;17.208;2023-04-24T05:37:55;17.10;;;10.55;;
40695;SDS011;40425;51.102;17.208;2023-04-24T05:42:56;14.40;;;10.18;;
40695;SDS011;40425;51.102;17.208;2023-04-24T05:47:57;20.10;;;9.90;;
40695;SDS011;40425;51.102;17.208;2023-04-24T05:52:57;15.35;;;9.48;;
40695;SDS011;40425;51.102;17.208;2023-04-24T05:57:58;14.70;;;9.55;;
40695;SDS011;40425;51.102;17.208;2023-04-24T06:03:00;17.63;;;9.05;;
40695;SDS011;40425;51.102;17.208;2023-04-24T06:08:01;14.50;;;9.27;;
40695;SDS011;40425;51.102;17.208;2023-04-24T06:13:02;11.23;;;8.52;;
40695;SDS011;40425;51.102;17.208;2023-04-24T06:18:03;17.23;;;7.38;;
40695;SDS011;40425;51.102;17.208;2023-04-24T06:23:04;11.93;;;5.78;;
40695;SDS011;40425;51.102;17.208;2023-04-24T06:28:05;8.05;;;5.50;;
40695;SDS011;40425;51.102;17.208;2023-04-24T06:33:06;13.07;;;5.78;;
40695;SDS011;40425;51.102;17.208;2023-04-24T06:38:06;6.30;;;4.15;;
40695;SDS011;40425;51.102;17.208;2023-04-24T06:57:19;4.70;;;3.92;;
40695;SDS011;40425;51.102;17.208;2023-04-24T07:02:20;6.45;;;3.97;;
40695;SDS011;40425;51.102;17.208;2023-04-24T07:07:21;10.25;;;3.55;;
40695;SDS011;40425;51.102;17.208;2023-04-24T07:12:23;5.10;;;3.25;;
40695;SDS011;40425;51.102;17.208;2023-04-24T07:17:24;8.05;;;3.47;;
40695;SDS011;40425;51.102;17.208;2023-04-24T07:22:26;8.13;;;3.67;;
40695;SDS011;40425;51.102;17.208;2023-04-24T07:27:27;4.28;;;3.67;;
40695;SDS011;40425;51.102;17.208;2023-04-24T07:32:27;5.53;;;3.45;;
40695;SDS011;40425;51.102;17.208;2023-04-24T07:37:28;3.17;;;2.83;;
40695;SDS011;40425;51.102;17.208;2023-04-24T07:42:29;4.20;;;3.28;;
40695;SDS011;40425;51.102;17.208;2023-04-24T07:47:31;4.70;;;3.13;;
40695;SDS011;40425;51.102;17.208;2023-04-24T07:52:32;5.05;;;3.63;;
40695;SDS011;40425;51.102;17.208;2023-04-24T07:57:33;5.15;;;3.30;;
40695;SDS011;40425;51.102;17.208;2023-04-24T08:02:34;5.72;;;3.60;;
40695;SDS011;40425;51.102;17.208;2023-04-24T08:07:35;9.02;;;3.90;;
40695;SDS011;40425;51.102;17.208;2023-04-24T08:12:36;8.35;;;3.95;;
40695;SDS011;40425;51.102;17.208;2023-04-24T08:17:38;7.13;;;3.20;;
40695;SDS011;40425;51.102;17.208;2023-04-24T08:22:39;7.22;;;3.28;;
40695;SDS011;40425;51.102;17.208;2023-04-24T08:27:41;7.60;;;4.07;;
40695;SDS011;40425;51.102;17.208;2023-04-24T08:32:41;5.25;;;4.05;;
40695;SDS011;40425;51.102;17.208;2023-04-24T08:51:21;5.72;;;4.45;;
40695;SDS011;40425;51.102;17.208;2023-04-24T08:56:23;9.68;;;5.80;;
40695;SDS011;40425;51.102;17.208;2023-04-24T09:01:24;7.10;;;4.65;;
40695;SDS011;40425;51.102;17.208;2023-04-24T09:06:26;8.50;;;4.82;;
40695;SDS011;40425;51.102;17.208;2023-04-24T09:11:28;9.13;;;6.18;;
40695;SDS011;40425;51.102;17.208;2023-04-24T09:16:30;9.52;;;6.30;;
40695;SDS011;40425;51.102;17.208;2023-04-24T09:21:33;8.30;;;7.50;;
40695;SDS011;40425;51.102;17.208;2023-04-24T09:26:35;6.00;;;5.20;;
40695;SDS011;40425;51.102;17.208;2023-04-24T09:31:37;12.15;;;7.03;;
40695;SDS011;40425;51.102;17.208;2023-04-24T09:36:38;6.78;;;4.88;;
40695;SDS011;40425;51.102;17.208;2023-04-24T09:41:45;8.05;;;4.63;;
40695;SDS011;40425;51.102;17.208;2023-04-24T09:46:52;5.45;;;4.28;;
40695;SDS011;40425;51.102;17.208;2023-04-24T09:52:04;7.88;;;5.70;;
40695;SDS011;40425;51.102;17.208;2023-04-24T09:57:07;5.18;;;4.47;;
40695;SDS011;40425;51.102;17.208;2023-04-24T10:02:30;7.22;;;5.00;;
40695;SDS011;40425;51.102;17.208;2023-04-24T10:07:32;10.57;;;5.20;;
40695;SDS011;40425;51.102;17.208;2023-04-24T10:12:33;8.98;;;3.95;;
40695;SDS011;40425;51.102;17.208;2023-04-24T10:17:34;6.55;;;3.50;;
40695;SDS011;40425;51.102;17.208;2023-04-24T10:22:36;4.45;;;3.75;;
40695;SDS011;40425;51.102;17.208;2023-04-24T10:27:37;3.88;;;3.13;;
40695;SDS011;40425;51.102;17.208;2023-04-24T10:32:39;4.22;;;3.42;;
40695;SDS011;40425;51.102;17.208;2023-04-24T10:37:41;4.18;;;3.33;;
40695;SDS011;40425;51.102;17.208;2023-04-24T10:42:51;7.07;;;4.47;;
40695;SDS011;40425;51.102;17.208;2023-04-24T10:47:59;5.85;;;5.25;;
40695;SDS011;40425;51.102;17.208;2023-04-24T10:53:06;7.28;;;4.72;;
40695;SDS011;40425;51.102;17.208;2023-04-24T10:58:12;8.10;;;7.03;;
40695;SDS011;40425;51.102;17.208;2023-04-24T11:08:32;6.40;;;4.65;;
40695;SDS011;40425;51.102;17.208;2023-04-24T11:19:01;4.85;;;4.07;;
40695;SDS011;40425;51.102;17.208;2023-04-24T11:24:26;5.35;;;4.28;;
40695;SDS011;40425;51.102;17.208;2023-04-24T11:29:43;8.30;;;4.55;;
40695;SDS011;40425;51.102;17.208;2023-04-24T11:34:49;6.53;;;4.10;;
40695;SDS011;40425;51.102;17.208;2023-04-24T11:39:52;3.38;;;3.08;;
40695;SDS011;40425;51.102;17.208;2023-04-24T11:44:55;3.90;;;3.45;;
40695;SDS011;40425;51.102;17.208;2023-04-24T11:50:00;7.45;;;3.72;;
40695;SDS011;40425;51.102;17.208;2023-04-24T11:55:02;4.25;;;3.40;;
40695;SDS011;40425;51.102;17.208;2023-04-24T12:00:04;7.65;;;4.32;;
40695;SDS011;40425;51.102;17.208;2023-04-24T12:05:05;6.50;;;4.80;;
40695;SDS011;40425;51.102;17.208;2023-04-24T12:10:07;8.48;;;4.60;;
40695;SDS011;40425;51.102;17.208;2023-04-24T12:15:09;5.32;;;4.10;;
40695;SDS011;40425;51.102;17.208;2023-04-24T12:20:12;9.57;;;4.80;;
40695;SDS011;40425;51.102;17.208;2023-04-24T12:25:15;7.57;;;4.43;;
40695;SDS011;40425;51.102;17.208;2023-04-24T12:30:17;4.78;;;4.38;;
40695;SDS011;40425;51.102;17.208;2023-04-24T12:35:19;7.70;;;4.18;;
40695;SDS011;40425;51.102;17.208;2023-04-24T12:40:25;4.25;;;3.53;;
40695;SDS011;40425;51.102;17.208;2023-04-24T12:45:26;6.47;;;3.47;;
40695;SDS011;40425;51.102;17.208;2023-04-24T12:50:28;5.68;;;4.05;;
40695;SDS011;40425;51.102;17.208;2023-04-24T12:55:28;7.20;;;5.78;;
40695;SDS011;40425;51.102;17.208;2023-04-24T13:00:29;5.80;;;5.07;;
40695;SDS011;40425;51.102;17.208;2023-04-24T13:05:30;6.00;;;5.40;;
40695;SDS011;40425;51.102;17.208;2023-04-24T13:10:31;8.35;;;5.25;;
40695;SDS011;40425;51.102;17.208;2023-04-24T13:15:32;8.45;;;5.30;;
40695;SDS011;40425;51.102;17.208;2023-04-24T13:20:33;8.73;;;6.50;;
40695;SDS011;40425;51.102;17.208;2023-04-24T13:25:35;7.35;;;6.63;;
40695;SDS011;40425;51.102;17.208;2023-04-24T13:30:39;8.80;;;5.75;;
40695;SDS011;40425;51.102;17.208;2023-04-24T13:35:39;11.93;;;7.78;;
40695;SDS011;40425;51.102;17.208;2023-04-24T13:40:40;8.30;;;7.45;;
40695;SDS011;40425;51.102;17.208;2023-04-24T13:45:41;10.02;;;7.60;;
40695;SDS011;40425;51.102;17.208;2023-04-24T13:50:42;12.38;;;8.25;;
40695;SDS011;40425;51.102;17.208;2023-04-24T13:55:44;4.05;;;3.65;;
40695;SDS011;40425;51.102;17.208;2023-04-24T14:00:45;3.72;;;1.08;;
40695;SDS011;40425;51.102;17.208;2023-04-24T14:05:46;4.07;;;0.68;;
40695;SDS011;40425;51.102;17.208;2023-04-24T14:10:47;4.47;;;0.68;;
40695;SDS011;40425;51.102;17.208;2023-04-24T14:15:47;3.28;;;0.43;;
40695;SDS011;40425;51.102;17.208;2023-04-24T14:20:48;1.30;;;0.50;;
40695;SDS011;40425;51.102;17.208;2023-04-24T14:25:49;2.40;;;0.40;;
40695;SDS011;40425;51.102;17.208;2023-04-24T14:30:52;2.28;;;0.30;;
40695;SDS011;40425;51.102;17.208;2023-04-24T14:35:53;1.48;;;0.30;;
40695;SDS011;40425;51.102;17.208;2023-04-24T14:40:55;2.17;;;0.40;;
40695;SDS011;40425;51.102;17.208;2023-04-24T14:46:09;1.83;;;0.60;;
40695;SDS011;40425;51.102;17.208;2023-04-24T14:51:10;1.50;;;0.50;;
40695;SDS011;40425;51.102;17.208;2023-04-24T14:56:11;3.55;;;0.50;;
40695;SDS011;40425;51.102;17.208;2023-04-24T15:01:12;2.35;;;0.30;;
40695;SDS011;40425;51.102;17.208;2023-04-24T15:06:13;6.78;;;0.77;;
40695;SDS011;40425;51.102;17.208;2023-04-24T15:11:14;2.03;;;0.40;;
40695;SDS011;40425;51.102;17.208;2023-04-24T15:16:15;2.83;;;0.75;;
40695;SDS011;40425;51.102;17.208;2023-04-24T15:21:16;2.08;;;0.50;;
40695;SDS011;40425;51.102;17.208;2023-04-24T15:26:18;3.72;;;0.80;;
40695;SDS011;40425;51.102;17.208;2023-04-24T15:31:20;2.60;;;0.57;;
40695;SDS011;40425;51.102;17.208;2023-04-24T15:36:22;3.17;;;1.00;;
40695;SDS011;40425;51.102;17.208;2023-04-24T15:41:23;3.00;;;0.77;;
40695;SDS011;40425;51.102;17.208;2023-04-24T15:46:24;5.45;;;1.27;;
40695;SDS011;40425;51.102;17.208;2023-04-24T15:51:25;2.83;;;0.70;;
40695;SDS011;40425;51.102;17.208;2023-04-24T15:56:26;4.95;;;1.10;;
40695;SDS011;40425;51.102;17.208;2023-04-24T16:01:27;2.72;;;0.70;;
40695;SDS011;40425;51.102;17.208;2023-04-24T16:06:30;3.63;;;0.82;;
40695;SDS011;40425;51.102;17.208;2023-04-24T16:11:32;1.85;;;0.77;;
40695;SDS011;40425;51.102;17.208;2023-04-24T16:16:39;3.05;;;0.65;;
40695;SDS011;40425;51.102;17.208;2023-04-24T16:21:39;3.50;;;1.38;;
40695;SDS011;40425;51.102;17.208;2023-04-24T16:26:41;1.83;;;0.75;;
40695;SDS011;40425;51.102;17.208;2023-04-24T16:31:42;2.15;;;0.77;;
40695;SDS011;40425;51.102;17.208;2023-04-24T16:36:43;3.08;;;0.63;;
40695;SDS011;40425;51.102;17.208;2023-04-24T16:41:45;3.65;;;0.98;;
40695;SDS011;40425;51.102;17.208;2023-04-24T16:46:45;2.97;;;0.90;;
40695;SDS011;40425;51.102;17.208;2023-04-24T16:51:46;2.70;;;0.70;;
40695;SDS011;40425;51.102;17.208;2023-04-24T16:56:47;2.50;;;0.90;;
40695;SDS011;40425;51.102;17.208;2023-04-24T17:01:49;2.75;;;0.63;;
40695;SDS011;40425;51.102;17.208;2023-04-24T17:06:50;6.63;;;0.70;;
40695;SDS011;40425;51.102;17.208;2023-04-24T17:11:51;2.95;;;0.60;;
40695;SDS011;40425;51.102;17.208;2023-04-24T17:16:54;2.45;;;0.93;;
40695;SDS011;40425;51.102;17.208;2023-04-24T17:21:55;4.88;;;1.08;;
40695;SDS011;40425;51.102;17.208;2023-04-24T17:26:57;3.22;;;1.33;;
40695;SDS011;40425;51.102;17.208;2023-04-24T17:31:59;3.47;;;1.85;;
40695;SDS011;40425;51.102;17.208;2023-04-24T17:37:00;5.63;;;3.13;;
40695;SDS011;40425;51.102;17.208;2023-04-24T17:42:01;8.20;;;4.22;;
40695;SDS011;40425;51.102;17.208;2023-04-24T17:47:07;7.28;;;5.00;;
40695;SDS011;40425;51.102;17.208;2023-04-24T17:52:08;7.70;;;5.07;;
40695;SDS011;40425;51.102;17.208;2023-04-24T17:57:10;8.88;;;6.38;;
40695;SDS011;40425;51.102;17.208;2023-04-24T18:02:13;8.82;;;6.53;;
40695;SDS011;40425;51.102;17.208;2023-04-24T18:07:14;14.43;;;7.43;;
40695;SDS011;40425;51.102;17.208;2023-04-24T18:12:16;8.00;;;6.13;;
40695;SDS011;40425;51.102;17.208;2023-04-24T18:17:20;6.70;;;4.55;;
40695;SDS011;40425;51.102;17.208;2023-04-24T18:22:21;13.75;;;5.50;;
40695;SDS011;40425;51.102;17.208;2023-04-24T18:27:24;10.93;;;6.72;;
40695;SDS011;40425;51.102;17.208;2023-04-24T18:32:28;8.60;;;6.50;;
40695;SDS011;40425;51.102;17.208;2023-04-24T18:37:29;11.02;;;6.78;;
40695;SDS011;40425;51.102;17.208;2023-04-24T18:42:33;7.65;;;6.60;;
40695;SDS011;40425;51.102;17.208;2023-04-24T18:47:34;9.45;;;5.90;;
40695;SDS011;40425;51.102;17.208;2023-04-24T18:52:36;9.27;;;5.47;;
40695;SDS011;40425;51.102;17.208;2023-04-24T18:57:37;12.80;;;6.78;;
40695;SDS011;40425;51.102;17.208;2023-04-24T19:02:38;12.25;;;7.57;;
40695;SDS011;40425;51.102;17.208;2023-04-24T19:07:38;14.75;;;8.00;;
40695;SDS011;40425;51.102;17.208;2023-04-24T19:12:42;11.77;;;6.75;;
40695;SDS011;40425;51.102;17.208;2023-04-24T19:17:45;11.35;;;7.20;;
40695;SDS011;40425;51.102;17.208;2023-04-24T19:22:50;11.35;;;8.07;;
40695;SDS011;40425;51.102;17.208;2023-04-24T19:27:53;11.98;;;8.27;;
40695;SDS011;40425;51.102;17.208;2023-04-24T19:32:55;104.15;;;70.85;;
40695;SDS011;40425;51.102;17.208;2023-04-24T19:37:56;28.13;;;19.13;;
40695;SDS011;40425;51.102;17.208;2023-04-24T19:42:56;18.35;;;12.23;;
40695;SDS011;40425;51.102;17.208;2023-04-24T19:47:57;20.52;;;13.95;;
40695;SDS011;40425;51.102;17.208;2023-04-24T19:52:59;19.25;;;12.18;;
40695;SDS011;40425;51.102;17.208;2023-04-24T19:58:00;14.77;;;10.65;;
40695;SDS011;40425;51.102;17.208;2023-04-24T20:03:01;14.15;;;9.85;;
40695;SDS011;40425;51.102;17.208;2023-04-24T20:08:02;21.48;;;13.40;;
40695;SDS011;40425;51.102;17.208;2023-04-24T20:13:03;16.95;;;12.60;;
40695;SDS011;40425;51.102;17.208;2023-04-24T20:18:04;21.55;;;12.13;;
40695;SDS011;40425;51.102;17.208;2023-04-24T20:23:04;19.40;;;11.13;;
40695;SDS011;40425;51.102;17.208;2023-04-24T20:28:05;21.45;;;13.00;;
40695;SDS011;40425;51.102;17.208;2023-04-24T20:33:06;22.80;;;12.05;;
40695;SDS011;40425;51.102;17.208;2023-04-24T20:38:07;18.95;;;10.88;;
40695;SDS011;40425;51.102;17.208;2023-04-24T20:43:10;20.73;;;10.90;;
40695;SDS011;40425;51.102;17.208;2023-04-24T20:48:13;21.83;;;10.90;;
40695;SDS011;40425;51.102;17.208;2023-04-24T20:53:14;13.93;;;9.90;;
40695;SDS011;40425;51.102;17.208;2023-04-24T20:58:15;12.75;;;7.20;;
40695;SDS011;40425;51.102;17.208;2023-04-24T21:03:23;10.93;;;6.47;;
40695;SDS011;40425;51.102;17.208;2023-04-24T21:08:24;5.57;;;4.22;;
40695;SDS011;40425;51.102;17.208;2023-04-24T21:13:25;8.10;;;5.03;;
40695;SDS011;40425;51.102;17.208;2023-04-24T21:18:26;7.65;;;5.13;;
40695;SDS011;40425;51.102;17.208;2023-04-24T21:23:27;5.68;;;4.20;;
40695;SDS011;40425;51.102;17.208;2023-04-24T21:28:28;6.68;;;4.60;;
40695;SDS011;40425;51.102;17.208;2023-04-24T21:33:30;8.50;;;5.35;;
40695;SDS011;40425;51.102;17.208;2023-04-24T21:38:31;5.63;;;3.55;;
40695;SDS011;40425;51.102;17.208;2023-04-24T21:43:31;7.53;;;3.40;;
40695;SDS011;40425;51.102;17.208;2023-04-24T21:48:32;6.43;;;3.30;;
40695;SDS011;40425;51.102;17.208;2023-04-24T21:53:33;5.25;;;3.22;;
40695;SDS011;40425;51.102;17.208;2023-04-24T21:58:34;5.65;;;2.75;;
40695;SDS011;40425;51.102;17.208;2023-04-24T22:03:35;5.22;;;2.72;;
40695;SDS011;40425;51.102;17.208;2023-04-24T22:08:36;7.70;;;2.45;;
40695;SDS011;40425;51.102;17.208;2023-04-24T22:13:37;5.03;;;2.17;;
40695;SDS011;40425;51.102;17.208;2023-04-24T22:18:38;7.57;;;2.42;;
40695;SDS011;40425;51.102;17.208;2023-04-24T22:23:39;3.30;;;1.73;;
40695;SDS011;40425;51.102;17.208;2023-04-24T22:28:40;3.47;;;2.25;;
40695;SDS011;40425;51.102;17.208;2023-04-24T22:33:42;2.63;;;1.40;;
40695;SDS011;40425;51.102;17.208;2023-04-24T22:38:46;4.93;;;1.42;;
40695;SDS011;40425;51.102;17.208;2023-04-24T22:43:47;3.35;;;1.10;;
40695;SDS011;40425;51.102;17.208;2023-04-24T22:48:49;6.13;;;1.30;;
40695;SDS011;40425;51.102;17.208;2023-04-24T22:53:50;2.13;;;0.80;;
40695;SDS011;40425;51.102;17.208;2023-04-24T22:58:50;3.75;;;1.00;;
40695;SDS011;40425;51.102;17.208;2023-04-24T23:03:52;3.47;;;0.57;;
40695;SDS011;40425;51.102;17.208;2023-04-24T23:08:52;7.72;;;0.50;;
40695;SDS011;40425;51.102;17.208;2023-04-24T23:13:53;3.20;;;0.45;;
40695;SDS011;40425;51.102;17.208;2023-04-24T23:18:55;4.40;;;0.40;;
40695;SDS011;40425;51.102;17.208;2023-04-24T23:23:56;3.72;;;0.60;;
40695;SDS011;40425;51.102;17.208;2023-04-24T23:28:57;5.43;;;0.55;;
40695;SDS011;40425;51.102;17.208;2023-04-24T23:33:58;3.20;;;0.50;;
40695;SDS011;40425;51.102;17.208;2023-04-24T23:39:00;1.73;;;0.40;;
40695;SDS011;40425;51.102;17.208;2023-04-24T23:44:04;1.13;;;0.30;;
40695;SDS011;40425;51.102;17.208;2023-04-24T23:49:05;1.05;;;0.45;;
40695;SDS011;40425;51.102;17.208;2023-04-24T23:54:06;1.45;;;0.40;;
40695;SDS011;40425;51.102;17.208;2023-04-24T23:59:08;2.50;;;0.38;;
